Carthagena, Ohio
Current Conditions -  °F | °C
As of 8:33 AM on Sunday 21 Dec 2014 (Local Time) from KAXV Reporting Station
Haze Haze  
Wind Chill: 27°   Ceiling: 5500
Heat Index: 27°   Visibility: 3mi
Dew Point: 27°   Wind: 0mph
Humidity: 100%   Direction: NA
Pressure: 30.3"   Gusts: NA
Location:  40.5555°N, 84.6061°W
Report Text: KAXV 211333Z AUTO 00000KT 3SM BR OVC055 M03/M03 A3030 RMK AO2
Loading
Personal Weather Stations






























Interactive Weather Map New forecast layout! Learn more

10-Day Weather Forecast

Advertisements
Track Severe Weather on mobile